Accueil
METAR-TAF:

METAR-TAF

Aéroports :

Base aérienne Volkel-Uden

Uden, Pays-Bas

latitude: 51-39N, longitude: 005-42E, altitude: 22 m

Observation

Le bulletin a été fait il y a 33 minutes, à 20:25 UTC
Vent 1 kt de direction variable
Température 10°C
Humidité 76%
Pression 1029 hPa
Visibilité 10 km ou plus

METAR: EHVK 062025Z AUTO VRB01KT 9999 NCD 10/06 Q1029 BLU

Heure: 22:58 (20:58 UTC)

Prévision

Le bulletin a été fait il y a 4 heures et 43 minutes, à 16:15 UTC
Prévision valable du 06 à 17 UTC au 07 à 05 UTC
Vent 4 kt de sud
Visibilité 10 km ou plus
pas de nuages en-dessous de 1500 mètres et pas de cumulonimbus.

TAF: EHVK 061615Z 0617/0705 18004KT CAVOK

Observations et prévisions météorologiques de plus de 4000 aéroports (messages METAR et TAF).

Les stations disponibles sont représentées par des disques jaunes et rouges sur la carte.

Passer la souris dessus pour voir le nom de la station.

Cliquer dessus pour voir les observations et prévisions météorologiques.

Pour changer de carte: cliquez sur les boutons verts avec une croix noire pour zoomer, sur le bouton vert avec un tiret pour effectuer un zoom arrière, ou sur les flèches vertes pour les cartes adjacentes.


METAR-TAF: